createdAt,value
2022-12-08T00:02:30.032Z,0.64
2022-12-08T00:05:45.094Z,0.68
2022-12-08T00:08:53.685Z,0.68
2022-12-08T00:12:11.049Z,0.72
2022-12-08T00:15:19.616Z,0.75
2022-12-08T00:18:34.040Z,0.76
2022-12-08T00:21:42.037Z,0.75
2022-12-08T00:24:57.085Z,0.73
2022-12-08T00:28:05.034Z,0.74
2022-12-08T00:31:13.775Z,0.73
2022-12-08T00:34:23.034Z,0.71
2022-12-08T00:37:38.349Z,0.60
2022-12-08T00:40:56.055Z,0.66
2022-12-08T00:44:11.054Z,0.69
2022-12-08T00:47:26.043Z,0.70
2022-12-08T00:50:28.110Z,0.68
2022-12-08T00:53:43.035Z,0.72
2022-12-08T00:56:51.072Z,0.73
2022-12-08T01:00:06.346Z,0.68
2022-12-08T01:03:15.022Z,0.71
2022-12-08T01:06:30.028Z,0.70
2022-12-08T01:09:38.043Z,0.61
2022-12-08T01:12:46.622Z,0.53
2022-12-08T01:15:55.053Z,0.46
2022-12-08T01:19:11.029Z,0.45
2022-12-08T01:22:12.941Z,0.43
2022-12-08T01:25:28.047Z,0.40
2022-12-08T01:28:37.028Z,0.42
2022-12-08T01:31:55.020Z,0.38
2022-12-08T01:34:56.879Z,0.31
2022-12-08T01:38:19.042Z,0.33
2022-12-08T01:41:43.065Z,0.20
2022-12-08T01:45:07.038Z,0.23
2022-12-08T01:48:31.037Z,0.18
2022-12-08T01:51:58.893Z,0.22
2022-12-08T01:55:22.038Z,0.22
2022-12-08T01:58:45.078Z,0.12
2022-12-08T02:01:53.940Z,0.11
2022-12-08T02:05:03.046Z,0.08
2022-12-08T02:08:20.165Z,0.08
2022-12-08T02:11:29.065Z,0.02
2022-12-08T02:14:37.704Z,0.02
2022-12-08T02:18:12.025Z,-0.09
2022-12-08T02:22:06.034Z,-0.15
2022-12-08T02:25:19.839Z,-0.20
2022-12-08T02:28:57.037Z,-0.27
2022-12-08T02:32:34.702Z,-0.34
2022-12-08T02:36:08.016Z,-0.31
2022-12-08T02:39:23.214Z,-0.24
2022-12-08T02:42:51.039Z,-0.19
2022-12-08T02:46:07.035Z,-0.15
2022-12-08T02:49:15.590Z,-0.09
2022-12-08T02:52:30.005Z,-0.06
2022-12-08T02:55:54.583Z,0.00
2022-12-08T02:59:36.010Z,0.03
2022-12-08T03:02:48.803Z,0.10
2022-12-08T03:06:23.029Z,0.17
2022-12-08T03:09:58.032Z,0.21
2022-12-08T03:13:20.439Z,0.27
2022-12-08T03:16:38.008Z,0.34
2022-12-08T03:19:55.019Z,0.41
2022-12-08T03:23:00.133Z,0.40
2022-12-08T03:26:25.023Z,0.43
2022-12-08T03:29:34.521Z,0.40
2022-12-08T03:33:13.025Z,0.47
2022-12-08T03:36:29.009Z,0.49
2022-12-08T03:39:44.075Z,0.45
2022-12-08T03:42:59.011Z,0.43
2022-12-08T03:46:07.611Z,0.49
2022-12-08T03:49:21.996Z,0.52
2022-12-08T03:52:38.074Z,0.56
2022-12-08T03:55:46.031Z,0.62
2022-12-08T03:59:02.026Z,0.67
2022-12-08T04:02:11.043Z,0.71
2022-12-08T04:05:19.617Z,0.69
2022-12-08T04:08:28.052Z,0.75
2022-12-08T04:11:43.047Z,0.77
2022-12-08T04:14:44.979Z,0.80
2022-12-08T04:18:00.015Z,0.84
2022-12-08T04:21:08.617Z,0.79
2022-12-08T04:24:16.979Z,0.73
2022-12-08T04:27:32.018Z,0.90
2022-12-08T04:30:34.706Z,0.93
2022-12-08T04:33:51.025Z,0.92
2022-12-08T04:36:52.891Z,0.91
2022-12-08T04:40:15.012Z,0.89
2022-12-08T04:43:23.607Z,0.93
2022-12-08T04:46:43.171Z,0.90
2022-12-08T04:49:51.993Z,0.88
2022-12-08T04:53:00.922Z,0.97
2022-12-08T04:56:08.996Z,0.98
2022-12-08T04:59:24.024Z,1.02
2022-12-08T05:02:32.821Z,1.08
2022-12-08T05:05:41.010Z,1.05
2022-12-08T05:08:55.987Z,1.02
2022-12-08T05:12:04.003Z,1.00
2022-12-08T05:15:18.991Z,1.00
2022-12-08T05:18:34.033Z,0.98
2022-12-08T05:21:42.946Z,1.02
2022-12-08T05:24:51.033Z,1.07
2022-12-08T05:28:24.569Z,1.08
2022-12-08T05:31:28.121Z,1.11
2022-12-08T05:34:36.676Z,1.07
2022-12-08T05:37:52.008Z,1.11
2022-12-08T05:41:00.673Z,1.15
2022-12-08T05:44:09.000Z,1.19
2022-12-08T05:47:23.983Z,1.18
2022-12-08T05:50:38.979Z,1.25
2022-12-08T05:53:47.004Z,1.30
2022-12-08T05:56:55.746Z,1.30
2022-12-08T06:00:04.287Z,1.33
2022-12-08T06:03:13.593Z,1.35
2022-12-08T06:06:28.993Z,1.38
2022-12-08T06:09:31.223Z,1.38
2022-12-08T06:12:46.013Z,1.37
2022-12-08T06:15:54.549Z,1.36
2022-12-08T06:19:03.991Z,1.37
2022-12-08T06:22:12.575Z,1.44
2022-12-08T06:25:21.089Z,1.47
2022-12-08T06:28:37.012Z,1.43
2022-12-08T06:31:52.027Z,1.39
2022-12-08T06:34:54.030Z,1.50
2022-12-08T06:38:16.044Z,1.51
2022-12-08T06:41:18.975Z,1.52
2022-12-08T06:44:34.006Z,1.52
2022-12-08T06:47:50.071Z,1.61
2022-12-08T06:50:52.025Z,1.67
2022-12-08T06:54:07.960Z,1.69
2022-12-08T06:57:23.005Z,1.68
2022-12-08T07:00:25.102Z,1.69
2022-12-08T07:03:39.989Z,1.72
2022-12-08T07:10:56.084Z,1.95
2022-12-08T07:14:06.000Z,2.00
2022-12-08T07:17:15.084Z,2.00
2022-12-08T07:20:23.719Z,1.98
2022-12-08T07:23:33.392Z,2.00
2022-12-08T07:26:41.941Z,2.05
2022-12-08T07:29:56.994Z,2.06
2022-12-08T07:32:58.916Z,2.13
2022-12-08T07:36:15.058Z,2.20
2022-12-08T07:39:30.984Z,2.21
2022-12-08T07:42:39.743Z,2.20
2022-12-08T07:45:56.015Z,2.14
2022-12-08T07:49:04.534Z,2.29
2022-12-08T07:56:25.986Z,2.48
2022-12-08T07:59:41.025Z,2.61
2022-12-08T08:02:43.370Z,2.58
2022-12-08T08:05:57.997Z,2.76
2022-12-08T08:09:06.334Z,2.81
2022-12-08T08:12:31.650Z,2.90
2022-12-08T08:15:40.074Z,3.00
2022-12-08T08:18:56.987Z,3.14
2022-12-08T08:21:58.887Z,3.27
2022-12-08T08:25:15.096Z,3.35
2022-12-08T08:28:17.306Z,3.45
2022-12-08T08:31:33.073Z,3.51
2022-12-08T08:34:48.007Z,3.57
2022-12-08T08:38:03.314Z,3.65
2022-12-08T08:41:15.995Z,3.72
2022-12-08T08:44:33.990Z,3.81
2022-12-08T08:47:35.854Z,3.92
2022-12-08T08:50:50.948Z,4.00
2022-12-08T08:53:52.897Z,4.09
2022-12-08T08:57:07.990Z,4.18
2022-12-08T09:00:17.051Z,4.29
2022-12-08T09:03:24.997Z,4.38
2022-12-08T09:06:33.709Z,4.42
2022-12-08T09:09:41.948Z,4.46
2022-12-08T09:12:51.212Z,4.55
2022-12-08T09:16:00.111Z,4.54
2022-12-08T09:19:08.845Z,4.48
2022-12-08T09:22:16.962Z,4.58
2022-12-08T09:25:25.529Z,4.60
2022-12-08T09:28:40.032Z,4.49
2022-12-08T09:31:42.319Z,4.44
2022-12-08T09:34:57.010Z,4.43
2022-12-08T09:38:11.991Z,4.43
2022-12-08T09:41:37.564Z,4.48
2022-12-08T09:45:09.001Z,4.53
2022-12-08T09:48:22.974Z,4.56
2022-12-08T09:51:48.060Z,4.58
2022-12-08T09:54:56.989Z,4.58
2022-12-08T09:58:15.451Z,4.57
2022-12-08T10:01:35.123Z,4.57
2022-12-08T10:04:51.206Z,4.62
2022-12-08T10:08:06.402Z,4.69
2022-12-08T10:11:23.040Z,4.75
2022-12-08T10:14:42.131Z,4.69
2022-12-08T10:17:58.990Z,4.71
2022-12-08T10:21:20.148Z,4.64
2022-12-08T10:25:06.979Z,4.62
2022-12-08T10:28:23.435Z,4.68
2022-12-08T10:31:31.691Z,4.59
2022-12-08T10:35:06.964Z,4.54
2022-12-08T10:38:29.940Z,4.60
2022-12-08T10:41:45.221Z,4.61
2022-12-08T10:45:20.950Z,4.69
2022-12-08T10:48:37.019Z,4.63
2022-12-08T10:51:42.660Z,4.68
2022-12-08T10:55:13.474Z,4.68
2022-12-08T10:58:24.449Z,4.71
2022-12-08T11:01:39.907Z,4.71
2022-12-08T11:04:57.710Z,4.73
2022-12-08T11:08:06.993Z,4.80
2022-12-08T11:11:16.997Z,4.82
2022-12-08T11:14:36.989Z,4.75
2022-12-08T11:17:57.434Z,4.73
2022-12-08T11:21:11.748Z,4.69
2022-12-08T11:24:37.328Z,4.66
2022-12-08T11:27:56.977Z,4.34
2022-12-08T11:31:28.119Z,4.47
2022-12-08T11:34:59.986Z,4.47
2022-12-08T11:38:20.551Z,4.43
2022-12-08T11:41:45.965Z,4.24
2022-12-08T11:45:07.256Z,4.09
2022-12-08T11:48:23.217Z,4.13
2022-12-08T11:51:55.005Z,4.20
2022-12-08T11:55:37.206Z,4.16
2022-12-08T11:58:56.296Z,4.16
2022-12-08T12:02:13.277Z,4.13
2022-12-08T12:06:08.790Z,4.16
2022-12-08T12:09:35.069Z,4.28
2022-12-08T12:13:02.230Z,4.30
2022-12-08T12:16:26.068Z,4.29
2022-12-08T12:19:45.981Z,4.24
2022-12-08T12:23:02.000Z,4.26
2022-12-08T12:26:19.876Z,4.29
2022-12-08T12:29:35.014Z,4.39
2022-12-08T12:32:55.044Z,4.42
2022-12-08T12:36:07.832Z,4.39
2022-12-08T12:39:36.115Z,4.33
2022-12-08T12:42:51.978Z,4.42
2022-12-08T12:46:42.945Z,4.42
2022-12-08T12:49:59.949Z,4.44
2022-12-08T12:53:25.872Z,4.50
2022-12-08T12:57:02.002Z,4.46
2022-12-08T13:00:19.510Z,4.53
2022-12-08T13:03:30.938Z,4.59
2022-12-08T13:06:43.325Z,4.64
2022-12-08T13:10:17.979Z,4.65
2022-12-08T13:13:19.870Z,4.71
2022-12-08T13:16:40.023Z,4.69
2022-12-08T13:19:45.345Z,4.75
2022-12-08T13:23:18.961Z,4.65
2022-12-08T13:26:34.967Z,4.72
2022-12-08T13:29:44.964Z,4.64
2022-12-08T13:33:19.555Z,4.69
2022-12-08T13:36:38.801Z,4.72
2022-12-08T13:40:07.192Z,4.73
2022-12-08T13:43:20.270Z,4.70
2022-12-08T13:47:16.800Z,4.60
2022-12-08T13:51:15.964Z,4.57
2022-12-08T13:57:36.054Z,4.54
2022-12-08T14:01:19.502Z,4.54
2022-12-08T14:04:54.374Z,4.50
2022-12-08T14:08:09.076Z,4.48
2022-12-08T14:11:22.041Z,4.52
2022-12-08T14:15:04.727Z,4.54
2022-12-08T14:18:29.989Z,4.45
2022-12-08T14:21:45.020Z,4.39
2022-12-08T14:24:54.443Z,4.44
2022-12-08T14:28:10.972Z,4.49
2022-12-08T14:31:13.028Z,4.49
2022-12-08T14:34:27.979Z,4.40
2022-12-08T14:37:33.141Z,4.41
2022-12-08T14:41:09.981Z,4.38
2022-12-08T14:44:24.559Z,4.38
2022-12-08T14:51:27.940Z,4.33
2022-12-08T14:54:43.967Z,4.27
2022-12-08T14:57:55.948Z,4.27
2022-12-08T15:05:10.004Z,4.21
2022-12-08T15:08:18.858Z,4.19
2022-12-08T15:11:39.909Z,4.12
2022-12-08T15:14:56.395Z,4.13
2022-12-08T15:18:18.947Z,4.12
2022-12-08T15:21:36.819Z,4.06
2022-12-08T15:24:54.946Z,4.05
2022-12-08T15:27:57.166Z,4.02
2022-12-08T15:31:12.023Z,4.02
2022-12-08T15:34:20.951Z,4.01
2022-12-08T15:37:29.779Z,3.94
2022-12-08T15:40:51.969Z,3.99
2022-12-08T15:43:59.966Z,3.97
2022-12-08T15:47:23.719Z,3.94
2022-12-08T15:50:38.977Z,3.84
2022-12-08T15:53:48.046Z,3.88
2022-12-08T16:00:53.351Z,3.92
2022-12-08T16:04:47.243Z,3.86
2022-12-08T16:07:38.233Z,3.77
2022-12-08T16:11:34.231Z,3.85
2022-12-08T16:15:23.787Z,3.87
2022-12-08T16:17:50.596Z,3.88
2022-12-08T16:21:10.269Z,3.91
2022-12-08T16:24:27.611Z,3.91
2022-12-08T16:28:08.358Z,3.89
2022-12-08T16:31:14.460Z,3.89
2022-12-08T16:34:31.967Z,3.86
2022-12-08T16:37:34.034Z,3.88
2022-12-08T16:40:55.942Z,3.84
2022-12-08T16:44:06.204Z,3.85
2022-12-08T16:47:20.945Z,3.84
2022-12-08T16:50:24.655Z,3.81
2022-12-08T16:53:40.186Z,3.83
2022-12-08T16:56:48.695Z,3.84
2022-12-08T17:00:05.257Z,3.83
2022-12-08T17:03:15.409Z,3.84
2022-12-08T17:06:24.960Z,3.83
2022-12-08T17:09:33.817Z,3.81
2022-12-08T17:12:49.935Z,3.79
2022-12-08T17:15:58.506Z,3.82
2022-12-08T17:19:07.074Z,3.81
2022-12-08T17:22:17.418Z,3.85
2022-12-08T17:25:26.226Z,3.80
2022-12-08T17:29:00.050Z,3.84
2022-12-08T17:32:16.056Z,3.73
2022-12-08T17:35:25.194Z,3.78
2022-12-08T17:38:47.909Z,3.82
2022-12-08T17:41:55.933Z,3.84
2022-12-08T17:45:14.957Z,3.87
2022-12-08T17:48:23.863Z,3.88
2022-12-08T17:51:39.918Z,3.88
2022-12-08T17:54:47.938Z,3.88
2022-12-08T17:57:57.899Z,3.92
2022-12-08T18:01:17.069Z,3.91
2022-12-08T18:04:32.984Z,3.90
2022-12-08T18:07:49.057Z,3.89
2022-12-08T18:10:57.645Z,3.90
2022-12-08T18:14:16.337Z,3.90
2022-12-08T18:17:25.326Z,3.92
2022-12-08T18:20:40.043Z,3.91
2022-12-08T18:23:48.750Z,3.94
2022-12-08T18:26:57.938Z,3.93
2022-12-08T18:30:09.460Z,3.95
2022-12-08T18:33:24.847Z,3.87
2022-12-08T18:36:34.108Z,3.95
2022-12-08T18:39:42.962Z,3.96
2022-12-08T18:42:51.575Z,3.94
2022-12-08T18:46:15.022Z,3.97
2022-12-08T18:49:24.599Z,3.98
2022-12-08T18:52:41.050Z,3.97
2022-12-08T18:55:49.901Z,3.95
2022-12-08T18:59:08.157Z,3.89
2022-12-08T19:02:17.658Z,3.75
2022-12-08T19:05:26.040Z,3.78
2022-12-08T19:08:41.386Z,3.66
2022-12-08T19:11:57.063Z,3.75
2022-12-08T19:15:07.799Z,3.79
2022-12-08T19:18:23.415Z,3.75
2022-12-08T19:21:25.852Z,3.80
2022-12-08T19:24:42.335Z,3.79
2022-12-08T19:27:50.991Z,3.72
2022-12-08T19:31:06.380Z,3.66
2022-12-08T19:34:10.652Z,3.74
2022-12-08T19:37:26.279Z,3.70
2022-12-08T19:40:42.252Z,3.70
2022-12-08T19:43:51.257Z,3.63
2022-12-08T19:47:07.405Z,3.65
2022-12-08T19:50:17.774Z,3.71
2022-12-08T19:53:26.902Z,3.72
2022-12-08T19:56:41.930Z,3.69
2022-12-08T19:59:56.219Z,3.73
2022-12-08T20:03:06.222Z,3.77
2022-12-08T20:06:25.149Z,3.75
2022-12-08T20:09:33.620Z,3.74
2022-12-08T20:12:50.304Z,3.73
2022-12-08T20:16:06.885Z,3.72
2022-12-08T20:19:10.054Z,3.66
2022-12-08T20:22:24.923Z,3.67
2022-12-08T20:25:43.941Z,3.71
2022-12-08T20:28:52.924Z,3.72
2022-12-08T20:32:08.438Z,3.63
2022-12-08T20:35:17.241Z,3.63
2022-12-08T20:38:33.926Z,3.57
2022-12-08T20:41:50.312Z,3.59
2022-12-08T20:45:06.670Z,3.60
2022-12-08T20:48:09.580Z,3.53
2022-12-08T20:51:31.692Z,3.58
2022-12-08T20:54:35.174Z,3.51
2022-12-08T20:57:50.095Z,3.44
2022-12-08T21:00:58.744Z,3.53
2022-12-08T21:04:07.983Z,3.56
2022-12-08T21:07:23.578Z,3.55
2022-12-08T21:10:43.974Z,3.39
2022-12-08T21:13:46.358Z,3.50
2022-12-08T21:17:00.999Z,3.55
2022-12-08T21:20:03.614Z,3.55
2022-12-08T21:23:19.190Z,3.55
2022-12-08T21:26:27.410Z,3.47
2022-12-08T21:29:41.975Z,3.54
2022-12-08T21:32:56.965Z,3.55
2022-12-08T21:36:14.948Z,3.54
2022-12-08T21:39:24.129Z,3.50
2022-12-08T21:42:46.095Z,3.55
2022-12-08T21:45:54.909Z,3.54
2022-12-08T21:49:11.067Z,3.54
2022-12-08T21:52:19.606Z,3.52
2022-12-08T21:55:28.078Z,3.52
2022-12-08T21:58:36.683Z,3.44
2022-12-08T22:01:53.157Z,3.47
2022-12-08T22:05:01.879Z,3.50
2022-12-08T22:08:10.709Z,3.48
2022-12-08T22:11:19.977Z,3.50
2022-12-08T22:14:34.927Z,3.43
2022-12-08T22:17:39.367Z,3.53
2022-12-08T22:20:55.925Z,3.50
2022-12-08T22:24:11.075Z,3.52
2022-12-08T22:27:25.988Z,3.53
2022-12-08T22:30:39.100Z,3.53
2022-12-08T22:33:55.997Z,3.51
2022-12-08T22:37:04.732Z,3.51
2022-12-08T22:40:13.977Z,3.51
2022-12-08T22:43:29.363Z,3.54
2022-12-08T22:46:44.105Z,3.56
2022-12-08T22:50:05.334Z,3.58
2022-12-08T22:53:19.894Z,3.57
2022-12-08T22:56:34.880Z,3.50
2022-12-08T22:59:36.928Z,3.53
2022-12-08T23:02:51.927Z,3.51
2022-12-08T23:06:00.951Z,3.51
2022-12-08T23:09:15.956Z,3.49
2022-12-08T23:12:24.960Z,3.47
2022-12-08T23:15:40.111Z,3.49
2022-12-08T23:18:50.978Z,3.53
2022-12-08T23:22:05.901Z,3.51
2022-12-08T23:25:08.569Z,3.53
2022-12-08T23:28:23.103Z,3.47
2022-12-08T23:31:31.848Z,3.52
2022-12-08T23:34:46.930Z,3.53
2022-12-08T23:37:48.855Z,3.48
2022-12-08T23:41:07.864Z,3.50
2022-12-08T23:44:17.248Z,3.47
2022-12-08T23:47:32.173Z,3.35
2022-12-08T23:50:40.999Z,3.40
2022-12-08T23:53:49.838Z,3.44
2022-12-08T23:57:04.897Z,3.34
